sensor_id;sensor_type;location;lat;lon;timestamp;P1;durP1;ratioP1;P2;durP2;ratioP2
8421;SDS011;4248;48.196;10.924;2024-02-15T00:00:41;3.27;;;1.50;;
8421;SDS011;4248;48.196;10.924;2024-02-15T00:03:08;3.57;;;1.40;;
8421;SDS011;4248;48.196;10.924;2024-02-15T00:05:33;3.60;;;1.77;;
8421;SDS011;4248;48.196;10.924;2024-02-15T00:08:02;3.53;;;1.83;;
8421;SDS011;4248;48.196;10.924;2024-02-15T00:10:28;6.47;;;1.80;;
8421;SDS011;4248;48.196;10.924;2024-02-15T00:12:53;3.03;;;1.90;;
8421;SDS011;4248;48.196;10.924;2024-02-15T00:15:19;3.00;;;2.00;;
8421;SDS011;4248;48.196;10.924;2024-02-15T00:17:45;2.20;;;1.37;;
8421;SDS011;4248;48.196;10.924;2024-02-15T00:20:11;3.33;;;1.90;;
8421;SDS011;4248;48.196;10.924;2024-02-15T00:22:38;3.27;;;1.77;;
8421;SDS011;4248;48.196;10.924;2024-02-15T00:25:06;3.10;;;2.00;;
8421;SDS011;4248;48.196;10.924;2024-02-15T00:27:33;4.57;;;2.17;;
8421;SDS011;4248;48.196;10.924;2024-02-15T00:30:02;3.20;;;2.00;;
8421;SDS011;4248;48.196;10.924;2024-02-15T00:32:28;2.70;;;1.60;;
8421;SDS011;4248;48.196;10.924;2024-02-15T00:34:54;2.77;;;1.70;;
8421;SDS011;4248;48.196;10.924;2024-02-15T00:37:20;3.13;;;1.70;;
8421;SDS011;4248;48.196;10.924;2024-02-15T00:39:45;3.87;;;2.10;;
8421;SDS011;4248;48.196;10.924;2024-02-15T00:42:11;4.00;;;2.07;;
8421;SDS011;4248;48.196;10.924;2024-02-15T00:44:37;3.90;;;2.00;;
8421;SDS011;4248;48.196;10.924;2024-02-15T00:47:04;2.97;;;1.93;;
8421;SDS011;4248;48.196;10.924;2024-02-15T00:49:30;4.00;;;1.80;;
8421;SDS011;4248;48.196;10.924;2024-02-15T00:51:57;2.83;;;1.70;;
8421;SDS011;4248;48.196;10.924;2024-02-15T00:54:22;7.80;;;2.00;;
8421;SDS011;4248;48.196;10.924;2024-02-15T00:56:48;3.70;;;1.93;;
8421;SDS011;4248;48.196;10.924;2024-02-15T00:59:13;7.93;;;1.73;;
8421;SDS011;4248;48.196;10.924;2024-02-15T01:01:39;2.40;;;1.40;;
8421;SDS011;4248;48.196;10.924;2024-02-15T01:04:06;3.33;;;2.10;;
8421;SDS011;4248;48.196;10.924;2024-02-15T01:06:32;3.10;;;1.70;;
8421;SDS011;4248;48.196;10.924;2024-02-15T01:08:59;2.73;;;1.90;;
8421;SDS011;4248;48.196;10.924;2024-02-15T01:11:26;6.30;;;1.97;;
8421;SDS011;4248;48.196;10.924;2024-02-15T01:13:53;3.40;;;1.90;;
8421;SDS011;4248;48.196;10.924;2024-02-15T01:16:20;3.07;;;1.77;;
8421;SDS011;4248;48.196;10.924;2024-02-15T01:18:49;3.67;;;1.90;;
8421;SDS011;4248;48.196;10.924;2024-02-15T01:21:15;3.30;;;1.73;;
8421;SDS011;4248;48.196;10.924;2024-02-15T01:23:40;4.83;;;2.07;;
8421;SDS011;4248;48.196;10.924;2024-02-15T01:26:07;3.73;;;1.80;;
8421;SDS011;4248;48.196;10.924;2024-02-15T01:28:33;2.93;;;1.87;;
8421;SDS011;4248;48.196;10.924;2024-02-15T01:30:59;3.50;;;2.00;;
8421;SDS011;4248;48.196;10.924;2024-02-15T01:33:24;3.93;;;1.97;;
8421;SDS011;4248;48.196;10.924;2024-02-15T01:35:50;3.57;;;1.93;;
8421;SDS011;4248;48.196;10.924;2024-02-15T01:38:16;4.20;;;2.10;;
8421;SDS011;4248;48.196;10.924;2024-02-15T01:40:41;3.30;;;2.20;;
8421;SDS011;4248;48.196;10.924;2024-02-15T01:43:07;3.47;;;1.97;;
8421;SDS011;4248;48.196;10.924;2024-02-15T01:45:33;5.33;;;2.37;;
8421;SDS011;4248;48.196;10.924;2024-02-15T01:47:58;5.17;;;2.00;;
8421;SDS011;4248;48.196;10.924;2024-02-15T01:50:24;3.70;;;2.03;;
8421;SDS011;4248;48.196;10.924;2024-02-15T01:52:52;3.60;;;1.77;;
8421;SDS011;4248;48.196;10.924;2024-02-15T01:55:19;4.03;;;1.77;;
8421;SDS011;4248;48.196;10.924;2024-02-15T01:57:45;4.00;;;1.93;;
8421;SDS011;4248;48.196;10.924;2024-02-15T02:00:12;3.83;;;2.30;;
8421;SDS011;4248;48.196;10.924;2024-02-15T02:02:39;3.07;;;2.03;;
8421;SDS011;4248;48.196;10.924;2024-02-15T02:05:07;4.10;;;2.20;;
8421;SDS011;4248;48.196;10.924;2024-02-15T02:07:33;2.63;;;1.73;;
8421;SDS011;4248;48.196;10.924;2024-02-15T02:09:59;4.27;;;1.90;;
8421;SDS011;4248;48.196;10.924;2024-02-15T02:12:25;3.97;;;1.97;;
8421;SDS011;4248;48.196;10.924;2024-02-15T02:14:52;5.07;;;1.97;;
8421;SDS011;4248;48.196;10.924;2024-02-15T02:17:19;4.20;;;1.70;;
8421;SDS011;4248;48.196;10.924;2024-02-15T02:19:45;3.30;;;2.00;;
8421;SDS011;4248;48.196;10.924;2024-02-15T02:22:11;5.63;;;1.93;;
8421;SDS011;4248;48.196;10.924;2024-02-15T02:24:40;3.07;;;1.90;;
8421;SDS011;4248;48.196;10.924;2024-02-15T02:27:29;3.00;;;1.80;;
8421;SDS011;4248;48.196;10.924;2024-02-15T02:29:56;3.53;;;1.83;;
8421;SDS011;4248;48.196;10.924;2024-02-15T02:32:24;3.70;;;1.90;;
8421;SDS011;4248;48.196;10.924;2024-02-15T02:34:50;7.27;;;2.43;;
8421;SDS011;4248;48.196;10.924;2024-02-15T02:37:16;3.90;;;2.50;;
8421;SDS011;4248;48.196;10.924;2024-02-15T02:39:42;6.60;;;3.27;;
8421;SDS011;4248;48.196;10.924;2024-02-15T02:42:08;4.17;;;2.40;;
8421;SDS011;4248;48.196;10.924;2024-02-15T02:44:33;3.03;;;2.00;;
8421;SDS011;4248;48.196;10.924;2024-02-15T02:46:59;3.50;;;1.80;;
8421;SDS011;4248;48.196;10.924;2024-02-15T02:49:25;6.20;;;2.10;;
8421;SDS011;4248;48.196;10.924;2024-02-15T02:51:51;4.20;;;1.97;;
8421;SDS011;4248;48.196;10.924;2024-02-15T02:54:16;3.73;;;1.90;;
8421;SDS011;4248;48.196;10.924;2024-02-15T02:56:42;6.03;;;1.87;;
8421;SDS011;4248;48.196;10.924;2024-02-15T02:59:10;2.73;;;1.57;;
8421;SDS011;4248;48.196;10.924;2024-02-15T03:01:35;4.07;;;2.20;;
8421;SDS011;4248;48.196;10.924;2024-02-15T03:04:01;5.10;;;1.77;;
8421;SDS011;4248;48.196;10.924;2024-02-15T03:06:27;4.13;;;2.00;;
8421;SDS011;4248;48.196;10.924;2024-02-15T03:08:53;4.10;;;2.00;;
8421;SDS011;4248;48.196;10.924;2024-02-15T03:11:21;3.33;;;1.90;;
8421;SDS011;4248;48.196;10.924;2024-02-15T03:13:47;4.57;;;2.07;;
8421;SDS011;4248;48.196;10.924;2024-02-15T03:16:13;3.60;;;1.80;;
8421;SDS011;4248;48.196;10.924;2024-02-15T03:18:39;2.87;;;1.77;;
8421;SDS011;4248;48.196;10.924;2024-02-15T03:21:06;3.43;;;1.90;;
8421;SDS011;4248;48.196;10.924;2024-02-15T03:23:34;3.10;;;1.57;;
8421;SDS011;4248;48.196;10.924;2024-02-15T03:26:01;3.43;;;1.70;;
8421;SDS011;4248;48.196;10.924;2024-02-15T03:28:27;8.63;;;2.70;;
8421;SDS011;4248;48.196;10.924;2024-02-15T03:30:53;4.53;;;1.90;;
8421;SDS011;4248;48.196;10.924;2024-02-15T03:33:18;3.20;;;2.07;;
8421;SDS011;4248;48.196;10.924;2024-02-15T03:35:45;3.80;;;2.20;;
8421;SDS011;4248;48.196;10.924;2024-02-15T03:38:11;3.73;;;2.40;;
8421;SDS011;4248;48.196;10.924;2024-02-15T03:40:37;4.67;;;2.57;;
8421;SDS011;4248;48.196;10.924;2024-02-15T03:43:05;3.83;;;1.90;;
8421;SDS011;4248;48.196;10.924;2024-02-15T03:45:33;5.53;;;1.83;;
8421;SDS011;4248;48.196;10.924;2024-02-15T03:47:59;4.60;;;2.80;;
8421;SDS011;4248;48.196;10.924;2024-02-15T03:50:24;4.30;;;2.30;;
8421;SDS011;4248;48.196;10.924;2024-02-15T03:52:50;4.97;;;2.60;;
8421;SDS011;4248;48.196;10.924;2024-02-15T03:55:16;4.30;;;2.70;;
8421;SDS011;4248;48.196;10.924;2024-02-15T03:57:42;4.27;;;2.80;;
8421;SDS011;4248;48.196;10.924;2024-02-15T04:00:11;4.63;;;2.63;;
8421;SDS011;4248;48.196;10.924;2024-02-15T04:02:40;4.70;;;2.73;;
8421;SDS011;4248;48.196;10.924;2024-02-15T04:05:06;4.80;;;2.33;;
8421;SDS011;4248;48.196;10.924;2024-02-15T04:07:34;5.60;;;3.27;;
8421;SDS011;4248;48.196;10.924;2024-02-15T04:09:59;6.07;;;2.93;;
8421;SDS011;4248;48.196;10.924;2024-02-15T04:12:26;6.90;;;2.97;;
8421;SDS011;4248;48.196;10.924;2024-02-15T04:14:52;4.30;;;2.27;;
8421;SDS011;4248;48.196;10.924;2024-02-15T04:17:17;4.93;;;3.03;;
8421;SDS011;4248;48.196;10.924;2024-02-15T04:19:46;4.90;;;2.20;;
8421;SDS011;4248;48.196;10.924;2024-02-15T04:22:15;3.20;;;2.00;;
8421;SDS011;4248;48.196;10.924;2024-02-15T04:24:44;4.73;;;2.20;;
8421;SDS011;4248;48.196;10.924;2024-02-15T04:27:10;4.17;;;2.13;;
8421;SDS011;4248;48.196;10.924;2024-02-15T04:29:39;4.33;;;2.30;;
8421;SDS011;4248;48.196;10.924;2024-02-15T04:32:12;3.57;;;2.30;;
8421;SDS011;4248;48.196;10.924;2024-02-15T04:34:38;4.40;;;2.10;;
8421;SDS011;4248;48.196;10.924;2024-02-15T04:37:04;3.80;;;2.00;;
8421;SDS011;4248;48.196;10.924;2024-02-15T04:39:34;3.43;;;2.10;;
8421;SDS011;4248;48.196;10.924;2024-02-15T04:42:01;4.80;;;2.20;;
8421;SDS011;4248;48.196;10.924;2024-02-15T04:44:27;3.37;;;2.03;;
8421;SDS011;4248;48.196;10.924;2024-02-15T04:46:53;3.20;;;2.00;;
8421;SDS011;4248;48.196;10.924;2024-02-15T04:49:19;3.20;;;2.10;;
8421;SDS011;4248;48.196;10.924;2024-02-15T04:51:45;4.63;;;2.03;;
8421;SDS011;4248;48.196;10.924;2024-02-15T04:54:12;2.87;;;1.80;;
8421;SDS011;4248;48.196;10.924;2024-02-15T04:56:41;3.50;;;1.87;;
8421;SDS011;4248;48.196;10.924;2024-02-15T04:59:07;3.30;;;1.60;;
8421;SDS011;4248;48.196;10.924;2024-02-15T05:01:40;4.77;;;1.90;;
8421;SDS011;4248;48.196;10.924;2024-02-15T05:04:09;3.90;;;1.90;;
8421;SDS011;4248;48.196;10.924;2024-02-15T05:06:36;2.47;;;1.57;;
8421;SDS011;4248;48.196;10.924;2024-02-15T05:09:02;4.67;;;1.67;;
8421;SDS011;4248;48.196;10.924;2024-02-15T05:11:32;3.33;;;2.40;;
8421;SDS011;4248;48.196;10.924;2024-02-15T05:14:01;4.00;;;1.90;;
8421;SDS011;4248;48.196;10.924;2024-02-15T05:16:30;4.10;;;2.07;;
8421;SDS011;4248;48.196;10.924;2024-02-15T05:18:56;3.50;;;1.77;;
8421;SDS011;4248;48.196;10.924;2024-02-15T05:21:22;3.40;;;1.60;;
8421;SDS011;4248;48.196;10.924;2024-02-15T05:23:47;3.80;;;1.80;;
8421;SDS011;4248;48.196;10.924;2024-02-15T05:26:13;5.80;;;1.97;;
8421;SDS011;4248;48.196;10.924;2024-02-15T05:28:41;4.07;;;1.97;;
8421;SDS011;4248;48.196;10.924;2024-02-15T05:33:37;3.10;;;1.90;;
8421;SDS011;4248;48.196;10.924;2024-02-15T05:36:08;5.20;;;1.80;;
8421;SDS011;4248;48.196;10.924;2024-02-15T05:38:35;3.10;;;1.80;;
8421;SDS011;4248;48.196;10.924;2024-02-15T05:41:01;4.00;;;1.90;;
8421;SDS011;4248;48.196;10.924;2024-02-15T05:43:28;4.37;;;1.93;;
8421;SDS011;4248;48.196;10.924;2024-02-15T05:45:53;6.50;;;1.83;;
8421;SDS011;4248;48.196;10.924;2024-02-15T05:48:19;4.00;;;2.00;;
8421;SDS011;4248;48.196;10.924;2024-02-15T05:50:46;11.83;;;2.17;;
8421;SDS011;4248;48.196;10.924;2024-02-15T05:53:12;13.67;;;2.17;;
8421;SDS011;4248;48.196;10.924;2024-02-15T05:55:37;4.00;;;2.13;;
8421;SDS011;4248;48.196;10.924;2024-02-15T05:58:05;3.63;;;1.93;;
8421;SDS011;4248;48.196;10.924;2024-02-15T06:00:34;3.00;;;1.70;;
8421;SDS011;4248;48.196;10.924;2024-02-15T06:03:00;7.40;;;1.90;;
8421;SDS011;4248;48.196;10.924;2024-02-15T06:05:27;3.50;;;1.83;;
8421;SDS011;4248;48.196;10.924;2024-02-15T06:07:53;3.60;;;1.80;;
8421;SDS011;4248;48.196;10.924;2024-02-15T06:10:18;7.27;;;2.40;;
8421;SDS011;4248;48.196;10.924;2024-02-15T06:12:44;4.77;;;2.07;;
8421;SDS011;4248;48.196;10.924;2024-02-15T06:15:09;3.70;;;2.17;;
8421;SDS011;4248;48.196;10.924;2024-02-15T06:17:40;10.30;;;2.07;;
8421;SDS011;4248;48.196;10.924;2024-02-15T06:20:09;3.40;;;2.13;;
8421;SDS011;4248;48.196;10.924;2024-02-15T06:22:39;2.80;;;1.83;;
8421;SDS011;4248;48.196;10.924;2024-02-15T06:25:05;3.37;;;1.93;;
8421;SDS011;4248;48.196;10.924;2024-02-15T06:27:31;3.57;;;1.60;;
8421;SDS011;4248;48.196;10.924;2024-02-15T06:29:57;3.37;;;2.30;;
8421;SDS011;4248;48.196;10.924;2024-02-15T06:32:42;2.97;;;1.80;;
8421;SDS011;4248;48.196;10.924;2024-02-15T06:35:26;3.03;;;1.70;;
8421;SDS011;4248;48.196;10.924;2024-02-15T06:38:11;3.70;;;1.90;;
8421;SDS011;4248;48.196;10.924;2024-02-15T06:40:55;8.57;;;2.40;;
8421;SDS011;4248;48.196;10.924;2024-02-15T06:43:20;3.50;;;2.07;;
8421;SDS011;4248;48.196;10.924;2024-02-15T06:45:46;5.40;;;2.50;;
8421;SDS011;4248;48.196;10.924;2024-02-15T06:48:14;4.23;;;1.90;;
8421;SDS011;4248;48.196;10.924;2024-02-15T06:50:40;3.40;;;2.13;;
8421;SDS011;4248;48.196;10.924;2024-02-15T06:53:06;3.90;;;1.80;;
8421;SDS011;4248;48.196;10.924;2024-02-15T06:55:33;3.58;;;1.80;;
8421;SDS011;4248;48.196;10.924;2024-02-15T06:57:59;3.87;;;1.83;;
8421;SDS011;4248;48.196;10.924;2024-02-15T07:00:24;4.93;;;2.00;;
8421;SDS011;4248;48.196;10.924;2024-02-15T07:02:50;3.30;;;2.00;;
8421;SDS011;4248;48.196;10.924;2024-02-15T07:05:15;5.57;;;2.10;;
8421;SDS011;4248;48.196;10.924;2024-02-15T07:07:42;3.47;;;1.83;;
8421;SDS011;4248;48.196;10.924;2024-02-15T07:10:08;3.10;;;1.83;;
8421;SDS011;4248;48.196;10.924;2024-02-15T07:12:35;4.53;;;2.20;;
8421;SDS011;4248;48.196;10.924;2024-02-15T07:15:03;5.03;;;2.10;;
8421;SDS011;4248;48.196;10.924;2024-02-15T07:17:31;4.23;;;2.03;;
8421;SDS011;4248;48.196;10.924;2024-02-15T07:19:57;4.23;;;2.13;;
8421;SDS011;4248;48.196;10.924;2024-02-15T07:22:23;4.30;;;2.40;;
8421;SDS011;4248;48.196;10.924;2024-02-15T07:24:48;3.97;;;2.10;;
8421;SDS011;4248;48.196;10.924;2024-02-15T07:27:14;5.23;;;2.20;;
8421;SDS011;4248;48.196;10.924;2024-02-15T07:29:40;4.47;;;2.30;;
8421;SDS011;4248;48.196;10.924;2024-02-15T07:32:05;8.03;;;1.80;;
8421;SDS011;4248;48.196;10.924;2024-02-15T07:34:31;3.10;;;2.20;;
8421;SDS011;4248;48.196;10.924;2024-02-15T07:36:58;4.30;;;2.50;;
8421;SDS011;4248;48.196;10.924;2024-02-15T07:39:24;5.53;;;2.70;;
8421;SDS011;4248;48.196;10.924;2024-02-15T07:41:53;7.30;;;2.60;;
8421;SDS011;4248;48.196;10.924;2024-02-15T07:44:19;4.73;;;2.27;;
8421;SDS011;4248;48.196;10.924;2024-02-15T07:46:47;3.87;;;2.23;;
8421;SDS011;4248;48.196;10.924;2024-02-15T07:49:12;3.90;;;2.07;;
8421;SDS011;4248;48.196;10.924;2024-02-15T07:51:38;6.10;;;2.53;;
8421;SDS011;4248;48.196;10.924;2024-02-15T07:54:04;6.70;;;2.53;;
8421;SDS011;4248;48.196;10.924;2024-02-15T07:56:29;5.27;;;2.43;;
8421;SDS011;4248;48.196;10.924;2024-02-15T07:58:55;4.40;;;2.60;;
8421;SDS011;4248;48.196;10.924;2024-02-15T08:01:21;4.50;;;2.60;;
8421;SDS011;4248;48.196;10.924;2024-02-15T08:03:49;4.40;;;2.60;;
8421;SDS011;4248;48.196;10.924;2024-02-15T08:06:15;3.80;;;2.70;;
8421;SDS011;4248;48.196;10.924;2024-02-15T08:08:42;5.87;;;2.43;;
8421;SDS011;4248;48.196;10.924;2024-02-15T08:11:15;7.37;;;2.03;;
8421;SDS011;4248;48.196;10.924;2024-02-15T08:13:43;4.90;;;2.50;;
8421;SDS011;4248;48.196;10.924;2024-02-15T08:16:09;5.47;;;2.80;;
8421;SDS011;4248;48.196;10.924;2024-02-15T08:18:37;8.33;;;3.40;;
8421;SDS011;4248;48.196;10.924;2024-02-15T08:21:04;6.33;;;3.30;;
8421;SDS011;4248;48.196;10.924;2024-02-15T08:23:30;6.50;;;2.73;;
8421;SDS011;4248;48.196;10.924;2024-02-15T08:25:55;5.43;;;2.40;;
8421;SDS011;4248;48.196;10.924;2024-02-15T08:28:22;4.03;;;2.30;;
8421;SDS011;4248;48.196;10.924;2024-02-15T08:30:48;4.80;;;2.60;;
8421;SDS011;4248;48.196;10.924;2024-02-15T08:33:14;5.77;;;3.00;;
8421;SDS011;4248;48.196;10.924;2024-02-15T08:35:39;5.40;;;2.40;;
8421;SDS011;4248;48.196;10.924;2024-02-15T08:38:06;5.90;;;3.03;;
8421;SDS011;4248;48.196;10.924;2024-02-15T08:40:32;9.30;;;3.33;;
8421;SDS011;4248;48.196;10.924;2024-02-15T08:42:57;11.10;;;4.73;;
8421;SDS011;4248;48.196;10.924;2024-02-15T08:45:23;7.63;;;4.10;;
8421;SDS011;4248;48.196;10.924;2024-02-15T08:47:49;6.97;;;3.30;;
8421;SDS011;4248;48.196;10.924;2024-02-15T08:50:18;5.17;;;2.90;;
8421;SDS011;4248;48.196;10.924;2024-02-15T08:52:44;4.53;;;2.70;;
8421;SDS011;4248;48.196;10.924;2024-02-15T08:55:11;7.43;;;2.80;;
8421;SDS011;4248;48.196;10.924;2024-02-15T08:57:39;4.80;;;2.80;;
8421;SDS011;4248;48.196;10.924;2024-02-15T09:00:06;7.20;;;2.47;;
8421;SDS011;4248;48.196;10.924;2024-02-15T09:02:38;4.33;;;2.77;;
8421;SDS011;4248;48.196;10.924;2024-02-15T09:05:05;11.50;;;2.50;;
8421;SDS011;4248;48.196;10.924;2024-02-15T09:07:31;3.77;;;2.33;;
8421;SDS011;4248;48.196;10.924;2024-02-15T09:09:56;3.37;;;2.17;;
8421;SDS011;4248;48.196;10.924;2024-02-15T09:12:22;4.50;;;2.27;;
8421;SDS011;4248;48.196;10.924;2024-02-15T09:14:48;4.80;;;2.43;;
8421;SDS011;4248;48.196;10.924;2024-02-15T09:17:13;2.77;;;1.90;;
8421;SDS011;4248;48.196;10.924;2024-02-15T09:19:39;3.60;;;2.33;;
8421;SDS011;4248;48.196;10.924;2024-02-15T09:22:05;6.83;;;2.87;;
8421;SDS011;4248;48.196;10.924;2024-02-15T09:24:31;4.03;;;2.50;;
8421;SDS011;4248;48.196;10.924;2024-02-15T09:26:59;5.90;;;2.60;;
8421;SDS011;4248;48.196;10.924;2024-02-15T09:29:26;4.13;;;2.20;;
8421;SDS011;4248;48.196;10.924;2024-02-15T09:31:52;5.03;;;3.30;;
8421;SDS011;4248;48.196;10.924;2024-02-15T09:34:18;6.00;;;2.50;;
8421;SDS011;4248;48.196;10.924;2024-02-15T09:36:43;4.07;;;2.40;;
8421;SDS011;4248;48.196;10.924;2024-02-15T09:39:10;3.40;;;1.80;;
8421;SDS011;4248;48.196;10.924;2024-02-15T09:41:39;4.73;;;2.27;;
8421;SDS011;4248;48.196;10.924;2024-02-15T09:44:04;4.17;;;2.13;;
8421;SDS011;4248;48.196;10.924;2024-02-15T09:46:32;4.10;;;2.07;;
8421;SDS011;4248;48.196;10.924;2024-02-15T09:49:01;3.90;;;1.93;;
8421;SDS011;4248;48.196;10.924;2024-02-15T09:51:28;3.67;;;2.20;;
8421;SDS011;4248;48.196;10.924;2024-02-15T09:53:58;7.30;;;2.73;;
8421;SDS011;4248;48.196;10.924;2024-02-15T09:56:26;2.90;;;1.83;;
8421;SDS011;4248;48.196;10.924;2024-02-15T09:58:54;5.13;;;2.00;;
8421;SDS011;4248;48.196;10.924;2024-02-15T10:01:19;4.13;;;2.23;;
8421;SDS011;4248;48.196;10.924;2024-02-15T10:03:47;5.50;;;2.10;;
8421;SDS011;4248;48.196;10.924;2024-02-15T10:06:15;5.47;;;2.00;;
8421;SDS011;4248;48.196;10.924;2024-02-15T10:08:43;4.97;;;1.67;;
8421;SDS011;4248;48.196;10.924;2024-02-15T10:11:09;2.47;;;1.50;;
8421;SDS011;4248;48.196;10.924;2024-02-15T10:13:35;4.00;;;2.00;;
8421;SDS011;4248;48.196;10.924;2024-02-15T10:16:13;4.40;;;2.13;;
8421;SDS011;4248;48.196;10.924;2024-02-15T10:18:40;10.10;;;2.03;;
8421;SDS011;4248;48.196;10.924;2024-02-15T10:21:05;4.57;;;1.77;;
8421;SDS011;4248;48.196;10.924;2024-02-15T10:23:31;3.07;;;1.60;;
8421;SDS011;4248;48.196;10.924;2024-02-15T10:25:56;2.93;;;1.77;;
8421;SDS011;4248;48.196;10.924;2024-02-15T10:28:23;3.73;;;1.77;;
8421;SDS011;4248;48.196;10.924;2024-02-15T10:30:49;7.97;;;2.07;;
8421;SDS011;4248;48.196;10.924;2024-02-15T10:33:18;5.60;;;1.90;;
8421;SDS011;4248;48.196;10.924;2024-02-15T10:35:47;3.57;;;2.10;;
8421;SDS011;4248;48.196;10.924;2024-02-15T10:38:14;3.60;;;1.77;;
8421;SDS011;4248;48.196;10.924;2024-02-15T10:40:40;4.03;;;1.73;;
8421;SDS011;4248;48.196;10.924;2024-02-15T10:43:07;4.70;;;2.20;;
8421;SDS011;4248;48.196;10.924;2024-02-15T10:45:38;7.37;;;1.93;;
8421;SDS011;4248;48.196;10.924;2024-02-15T10:48:08;3.40;;;1.40;;
8421;SDS011;4248;48.196;10.924;2024-02-15T10:50:35;5.07;;;1.73;;
8421;SDS011;4248;48.196;10.924;2024-02-15T10:53:02;7.80;;;1.17;;
8421;SDS011;4248;48.196;10.924;2024-02-15T10:58:23;5.10;;;1.37;;
8421;SDS011;4248;48.196;10.924;2024-02-15T11:00:54;3.07;;;1.40;;
8421;SDS011;4248;48.196;10.924;2024-02-15T11:03:25;5.50;;;1.50;;
8421;SDS011;4248;48.196;10.924;2024-02-15T11:06:01;3.97;;;1.73;;
8421;SDS011;4248;48.196;10.924;2024-02-15T11:08:31;3.47;;;1.57;;
8421;SDS011;4248;48.196;10.924;2024-02-15T11:10:57;4.60;;;1.80;;
8421;SDS011;4248;48.196;10.924;2024-02-15T11:13:24;4.80;;;2.27;;
8421;SDS011;4248;48.196;10.924;2024-02-15T11:15:50;6.77;;;1.93;;
8421;SDS011;4248;48.196;10.924;2024-02-15T11:21:11;3.73;;;1.53;;
8421;SDS011;4248;48.196;10.924;2024-02-15T11:23:37;3.20;;;1.37;;
8421;SDS011;4248;48.196;10.924;2024-02-15T11:26:03;3.43;;;1.60;;
8421;SDS011;4248;48.196;10.924;2024-02-15T11:28:36;4.00;;;1.80;;
8421;SDS011;4248;48.196;10.924;2024-02-15T11:31:03;3.13;;;1.43;;
8421;SDS011;4248;48.196;10.924;2024-02-15T11:33:32;5.73;;;1.60;;
8421;SDS011;4248;48.196;10.924;2024-02-15T11:38:32;3.90;;;1.80;;
8421;SDS011;4248;48.196;10.924;2024-02-15T11:41:00;8.50;;;1.33;;
8421;SDS011;4248;48.196;10.924;2024-02-15T11:46:13;2.83;;;1.30;;
8421;SDS011;4248;48.196;10.924;2024-02-15T11:48:39;5.10;;;1.50;;
8421;SDS011;4248;48.196;10.924;2024-02-15T11:51:05;3.73;;;1.30;;
8421;SDS011;4248;48.196;10.924;2024-02-15T11:53:32;3.80;;;1.37;;
8421;SDS011;4248;48.196;10.924;2024-02-15T11:56:01;2.77;;;1.27;;
8421;SDS011;4248;48.196;10.924;2024-02-15T11:58:30;2.83;;;1.33;;
8421;SDS011;4248;48.196;10.924;2024-02-15T12:01:11;3.30;;;1.40;;
8421;SDS011;4248;48.196;10.924;2024-02-15T12:03:55;5.03;;;1.67;;
8421;SDS011;4248;48.196;10.924;2024-02-15T12:06:39;4.00;;;1.60;;
8421;SDS011;4248;48.196;10.924;2024-02-15T12:09:24;3.67;;;1.50;;
8421;SDS011;4248;48.196;10.924;2024-02-15T12:12:11;4.07;;;1.77;;
8421;SDS011;4248;48.196;10.924;2024-02-15T12:15:02;3.47;;;1.33;;
8421;SDS011;4248;48.196;10.924;2024-02-15T12:17:47;10.80;;;3.20;;
8421;SDS011;4248;48.196;10.924;2024-02-15T12:20:31;4.03;;;1.53;;
8421;SDS011;4248;48.196;10.924;2024-02-15T12:22:57;3.13;;;1.53;;
8421;SDS011;4248;48.196;10.924;2024-02-15T12:25:26;2.30;;;1.00;;
8421;SDS011;4248;48.196;10.924;2024-02-15T12:27:56;3.10;;;1.10;;
8421;SDS011;4248;48.196;10.924;2024-02-15T12:30:24;3.23;;;1.30;;
8421;SDS011;4248;48.196;10.924;2024-02-15T12:32:51;4.80;;;1.70;;
8421;SDS011;4248;48.196;10.924;2024-02-15T12:35:21;2.30;;;1.30;;
8421;SDS011;4248;48.196;10.924;2024-02-15T12:38:01;3.20;;;1.37;;
8421;SDS011;4248;48.196;10.924;2024-02-15T12:40:30;5.70;;;1.00;;
8421;SDS011;4248;48.196;10.924;2024-02-15T12:42:57;2.77;;;1.30;;
8421;SDS011;4248;48.196;10.924;2024-02-15T12:45:25;5.10;;;1.10;;
8421;SDS011;4248;48.196;10.924;2024-02-15T12:47:55;5.90;;;1.87;;
8421;SDS011;4248;48.196;10.924;2024-02-15T12:50:22;4.80;;;1.50;;
8421;SDS011;4248;48.196;10.924;2024-02-15T12:52:49;2.30;;;1.27;;
8421;SDS011;4248;48.196;10.924;2024-02-15T12:57:47;2.90;;;1.33;;
8421;SDS011;4248;48.196;10.924;2024-02-15T13:00:17;2.70;;;1.20;;
8421;SDS011;4248;48.196;10.924;2024-02-15T13:02:47;3.10;;;1.40;;
8421;SDS011;4248;48.196;10.924;2024-02-15T13:05:14;5.20;;;1.30;;
8421;SDS011;4248;48.196;10.924;2024-02-15T13:07:43;4.03;;;1.53;;
8421;SDS011;4248;48.196;10.924;2024-02-15T13:10:09;5.80;;;1.63;;
8421;SDS011;4248;48.196;10.924;2024-02-15T13:12:35;3.43;;;1.33;;
8421;SDS011;4248;48.196;10.924;2024-02-15T13:15:03;3.80;;;1.80;;
8421;SDS011;4248;48.196;10.924;2024-02-15T13:17:30;5.10;;;1.60;;
8421;SDS011;4248;48.196;10.924;2024-02-15T13:19:56;3.53;;;1.27;;
8421;SDS011;4248;48.196;10.924;2024-02-15T13:22:29;2.47;;;1.23;;
8421;SDS011;4248;48.196;10.924;2024-02-15T13:24:56;2.70;;;1.37;;
8421;SDS011;4248;48.196;10.924;2024-02-15T13:27:21;2.50;;;1.30;;
8421;SDS011;4248;48.196;10.924;2024-02-15T13:29:48;2.73;;;1.27;;
8421;SDS011;4248;48.196;10.924;2024-02-15T13:32:14;5.50;;;1.80;;
8421;SDS011;4248;48.196;10.924;2024-02-15T13:34:42;2.53;;;1.20;;
8421;SDS011;4248;48.196;10.924;2024-02-15T13:37:07;6.00;;;1.80;;
8421;SDS011;4248;48.196;10.924;2024-02-15T13:39:33;4.10;;;1.50;;
8421;SDS011;4248;48.196;10.924;2024-02-15T13:42:02;4.07;;;1.10;;
8421;SDS011;4248;48.196;10.924;2024-02-15T13:44:27;2.80;;;1.40;;
8421;SDS011;4248;48.196;10.924;2024-02-15T13:46:56;2.43;;;1.17;;
8421;SDS011;4248;48.196;10.924;2024-02-15T13:49:22;2.47;;;1.20;;
8421;SDS011;4248;48.196;10.924;2024-02-15T13:51:48;2.60;;;1.20;;
8421;SDS011;4248;48.196;10.924;2024-02-15T13:54:16;2.67;;;1.20;;
8421;SDS011;4248;48.196;10.924;2024-02-15T13:56:42;4.43;;;1.37;;
8421;SDS011;4248;48.196;10.924;2024-02-15T13:59:08;4.70;;;1.40;;
8421;SDS011;4248;48.196;10.924;2024-02-15T14:01:34;4.10;;;1.43;;
8421;SDS011;4248;48.196;10.924;2024-02-15T14:04:00;3.77;;;1.67;;
8421;SDS011;4248;48.196;10.924;2024-02-15T14:06:25;2.97;;;1.40;;
8421;SDS011;4248;48.196;10.924;2024-02-15T14:08:51;6.13;;;1.43;;
8421;SDS011;4248;48.196;10.924;2024-02-15T14:11:17;3.23;;;1.43;;
8421;SDS011;4248;48.196;10.924;2024-02-15T14:13:42;5.30;;;1.90;;
8421;SDS011;4248;48.196;10.924;2024-02-15T14:16:08;3.10;;;1.50;;
8421;SDS011;4248;48.196;10.924;2024-02-15T14:18:33;3.97;;;1.67;;
8421;SDS011;4248;48.196;10.924;2024-02-15T14:21:00;2.53;;;1.30;;
8421;SDS011;4248;48.196;10.924;2024-02-15T14:23:26;4.10;;;1.70;;
8421;SDS011;4248;48.196;10.924;2024-02-15T14:25:53;3.60;;;1.83;;
8421;SDS011;4248;48.196;10.924;2024-02-15T14:28:25;2.90;;;1.30;;
8421;SDS011;4248;48.196;10.924;2024-02-15T14:30:50;2.70;;;1.33;;
8421;SDS011;4248;48.196;10.924;2024-02-15T14:33:34;4.20;;;1.90;;
8421;SDS011;4248;48.196;10.924;2024-02-15T14:36:00;3.50;;;1.53;;
8421;SDS011;4248;48.196;10.924;2024-02-15T14:38:26;2.70;;;1.40;;
8421;SDS011;4248;48.196;10.924;2024-02-15T14:40:51;5.23;;;1.70;;
8421;SDS011;4248;48.196;10.924;2024-02-15T14:43:22;3.37;;;1.27;;
8421;SDS011;4248;48.196;10.924;2024-02-15T14:45:50;2.57;;;1.27;;
8421;SDS011;4248;48.196;10.924;2024-02-15T14:48:18;4.40;;;1.23;;
8421;SDS011;4248;48.196;10.924;2024-02-15T14:50:45;2.63;;;1.20;;
8421;SDS011;4248;48.196;10.924;2024-02-15T14:53:11;2.87;;;1.30;;
8421;SDS011;4248;48.196;10.924;2024-02-15T14:55:40;3.03;;;1.17;;
8421;SDS011;4248;48.196;10.924;2024-02-15T14:58:10;3.77;;;1.30;;
8421;SDS011;4248;48.196;10.924;2024-02-15T15:00:37;4.43;;;1.60;;
8421;SDS011;4248;48.196;10.924;2024-02-15T15:03:04;4.57;;;1.33;;
8421;SDS011;4248;48.196;10.924;2024-02-15T15:05:30;2.60;;;1.43;;
8421;SDS011;4248;48.196;10.924;2024-02-15T15:08:15;2.90;;;1.50;;
8421;SDS011;4248;48.196;10.924;2024-02-15T15:10:59;5.43;;;2.77;;
8421;SDS011;4248;48.196;10.924;2024-02-15T15:13:43;3.53;;;1.80;;
8421;SDS011;4248;48.196;10.924;2024-02-15T15:16:09;3.33;;;1.70;;
8421;SDS011;4248;48.196;10.924;2024-02-15T15:18:39;3.83;;;1.87;;